createdAt,value
2022-11-12T00:01:16.010Z,3.87
2022-11-12T00:03:44.548Z,3.73
2022-11-12T00:06:13.110Z,3.70
2022-11-12T00:08:41.654Z,4.23
2022-11-12T00:11:10.267Z,3.87
2022-11-12T00:13:38.901Z,3.27
2022-11-12T00:16:08.576Z,4.20
2022-11-12T00:18:38.504Z,3.90
2022-11-12T00:21:07.362Z,3.10
2022-11-12T00:23:35.929Z,4.00
2022-11-12T00:26:04.519Z,3.60
2022-11-12T00:28:37.722Z,3.77
2022-11-12T00:31:11.614Z,3.50
2022-11-12T00:33:45.375Z,3.17
2022-11-12T00:36:14.054Z,3.50
2022-11-12T00:38:42.621Z,3.30
2022-11-12T00:41:11.180Z,3.50
2022-11-12T00:43:39.717Z,3.63
2022-11-12T00:46:08.305Z,3.27
2022-11-12T00:48:36.862Z,3.60
2022-11-12T00:51:07.165Z,3.43
2022-11-12T00:53:35.773Z,3.57
2022-11-12T00:56:04.910Z,3.17
2022-11-12T00:58:33.995Z,4.50
2022-11-12T01:01:08.373Z,3.20
2022-11-12T01:03:37.062Z,3.90
2022-11-12T01:06:07.809Z,3.30
2022-11-12T01:08:36.475Z,3.10
2022-11-12T01:11:09.259Z,2.50
2022-11-12T01:13:42.868Z,3.33
2022-11-12T01:16:13.614Z,2.57
2022-11-12T01:18:42.306Z,2.90
2022-11-12T01:21:12.204Z,3.20
2022-11-12T01:23:41.617Z,3.83
2022-11-12T01:26:11.178Z,3.57
2022-11-12T01:28:39.829Z,3.83
2022-11-12T01:31:15.681Z,4.10
2022-11-12T01:33:44.922Z,4.47
2022-11-12T01:36:15.089Z,4.53
2022-11-12T01:38:44.095Z,4.00
2022-11-12T01:41:14.781Z,4.10
2022-11-12T01:43:43.385Z,4.20
2022-11-12T01:46:15.941Z,3.70
2022-11-12T01:48:48.234Z,4.10
2022-11-12T01:51:18.461Z,4.30
2022-11-12T01:53:49.134Z,3.90
2022-11-12T01:56:18.360Z,3.50
2022-11-12T01:58:47.117Z,3.10
2022-11-12T02:01:15.771Z,3.13
2022-11-12T02:03:44.648Z,3.87
2022-11-12T02:06:17.007Z,3.70
2022-11-12T02:08:45.586Z,3.17
2022-11-12T02:11:15.264Z,3.03
2022-11-12T02:14:01.116Z,3.43
2022-11-12T02:16:32.334Z,2.90
2022-11-12T02:19:00.960Z,2.60
2022-11-12T02:21:31.002Z,3.20
2022-11-12T02:24:01.648Z,3.30
2022-11-12T02:26:33.101Z,3.00
2022-11-12T02:29:01.668Z,3.57
2022-11-12T02:31:30.247Z,3.17
2022-11-12T02:33:58.813Z,3.40
2022-11-12T02:36:27.655Z,2.80
2022-11-12T02:38:57.664Z,3.13
2022-11-12T02:41:26.252Z,3.30
2022-11-12T02:43:54.778Z,3.23
2022-11-12T02:46:23.364Z,3.20
2022-11-12T02:48:51.910Z,3.30
2022-11-12T02:51:20.554Z,2.60
2022-11-12T02:53:49.096Z,3.23
2022-11-12T02:56:19.064Z,3.50
2022-11-12T02:58:47.557Z,3.30
2022-11-12T03:01:16.197Z,3.50
2022-11-12T03:03:44.868Z,2.87
2022-11-12T03:06:13.435Z,3.27
2022-11-12T03:08:42.050Z,3.30
2022-11-12T03:11:11.501Z,2.83
2022-11-12T03:13:41.495Z,3.23
2022-11-12T03:16:10.320Z,3.00
2022-11-12T03:18:38.888Z,2.93
2022-11-12T03:21:07.659Z,3.07
2022-11-12T03:23:36.229Z,3.40
2022-11-12T03:26:05.212Z,2.50
2022-11-12T03:28:34.070Z,3.40
2022-11-12T03:31:04.019Z,3.80
2022-11-12T03:33:32.594Z,3.20
2022-11-12T03:36:01.132Z,3.10
2022-11-12T03:38:29.968Z,2.90
2022-11-12T03:40:58.669Z,2.90
2022-11-12T03:43:27.277Z,3.20
2022-11-12T03:45:55.833Z,2.70
2022-11-12T03:48:26.395Z,2.90
2022-11-12T03:50:58.129Z,4.37
2022-11-12T03:53:27.692Z,2.80
2022-11-12T03:55:56.281Z,2.83
2022-11-12T03:58:25.219Z,3.13
2022-11-12T04:00:54.058Z,3.23
2022-11-12T04:03:24.078Z,2.60
2022-11-12T04:06:10.251Z,2.80
2022-11-12T04:08:38.853Z,3.17
2022-11-12T04:11:08.818Z,3.33
2022-11-12T04:13:38.557Z,3.30
2022-11-12T04:16:26.116Z,2.83
2022-11-12T04:19:14.672Z,2.73
2022-11-12T04:21:54.813Z,2.67
2022-11-12T04:24:43.366Z,2.93
2022-11-12T04:27:13.579Z,3.80
2022-11-12T04:29:59.340Z,2.57
2022-11-12T04:32:27.869Z,3.03
2022-11-12T04:34:58.020Z,3.13
2022-11-12T04:37:27.594Z,3.00
2022-11-12T04:40:16.182Z,2.87
2022-11-12T04:43:06.029Z,3.17
2022-11-12T04:45:34.557Z,2.90
2022-11-12T04:48:03.107Z,3.13
2022-11-12T04:50:33.090Z,2.57
2022-11-12T04:53:01.647Z,2.73
2022-11-12T04:55:30.158Z,2.97
2022-11-12T04:58:00.833Z,3.37
2022-11-12T05:00:29.746Z,3.70
2022-11-12T05:02:58.383Z,2.83
2022-11-12T05:05:31.101Z,3.33
2022-11-12T05:08:03.829Z,3.30
2022-11-12T05:10:32.543Z,3.17
2022-11-12T05:13:01.076Z,3.00
2022-11-12T05:15:29.648Z,2.93
2022-11-12T05:17:58.206Z,2.90
2022-11-12T05:20:26.805Z,3.00
2022-11-12T05:23:06.045Z,3.00
2022-11-12T05:25:37.027Z,3.33
2022-11-12T05:28:07.179Z,4.20
2022-11-12T05:30:36.598Z,3.57
2022-11-12T05:33:05.252Z,3.20
2022-11-12T05:35:33.779Z,3.73
2022-11-12T05:38:02.346Z,4.23
2022-11-12T05:40:30.914Z,3.33
2022-11-12T05:43:01.780Z,3.10
2022-11-12T05:45:30.330Z,3.17
2022-11-12T05:47:58.937Z,3.97
2022-11-12T05:50:34.838Z,3.03
2022-11-12T05:53:08.678Z,3.53
2022-11-12T05:55:37.374Z,3.03
2022-11-12T05:58:08.173Z,3.00
2022-11-12T06:00:39.198Z,3.80
2022-11-12T06:03:07.745Z,3.50
2022-11-12T06:05:36.422Z,3.70
2022-11-12T06:08:05.469Z,3.63
2022-11-12T06:10:34.006Z,3.33
2022-11-12T06:13:02.616Z,2.97
2022-11-12T06:15:38.016Z,2.87
2022-11-12T06:18:07.914Z,2.70
2022-11-12T06:20:36.461Z,3.30
2022-11-12T06:23:05.083Z,3.30
2022-11-12T06:25:33.640Z,3.37
2022-11-12T06:28:02.181Z,4.57
2022-11-12T06:30:32.204Z,4.03
2022-11-12T06:33:00.738Z,4.37
2022-11-12T06:35:29.263Z,5.57
2022-11-12T06:37:57.834Z,4.50
2022-11-12T06:40:26.385Z,4.90
2022-11-12T06:42:58.632Z,5.13
2022-11-12T06:45:27.307Z,5.50
2022-11-12T06:48:00.715Z,5.70
2022-11-12T06:50:29.293Z,6.20
2022-11-12T06:53:00.293Z,6.80
2022-11-12T06:55:28.864Z,6.67
2022-11-12T06:57:57.393Z,7.20
2022-11-12T07:00:25.988Z,5.83
2022-11-12T07:02:54.535Z,5.73
2022-11-12T07:05:24.458Z,5.73
2022-11-12T07:07:53.071Z,5.20
2022-11-12T07:10:21.608Z,5.60
2022-11-12T07:12:53.332Z,6.63
2022-11-12T07:15:22.832Z,5.40
2022-11-12T07:17:51.406Z,5.50
2022-11-12T07:20:20.020Z,6.47
2022-11-12T07:22:50.238Z,5.40
2022-11-12T07:25:18.775Z,6.03
2022-11-12T07:27:47.342Z,5.60
2022-11-12T07:30:16.410Z,6.27
2022-11-12T07:32:48.407Z,5.53
2022-11-12T07:35:20.649Z,5.80
2022-11-12T07:37:50.571Z,5.87
2022-11-12T07:40:19.107Z,5.77
2022-11-12T07:42:47.682Z,5.80
2022-11-12T07:45:16.451Z,6.87
2022-11-12T07:47:44.976Z,5.90
2022-11-12T07:50:13.610Z,6.43
2022-11-12T07:52:42.173Z,6.37
2022-11-12T07:55:13.351Z,6.60
2022-11-12T07:57:41.932Z,6.90
2022-11-12T08:00:12.329Z,7.23
2022-11-12T08:02:40.953Z,7.40
2022-11-12T08:05:14.612Z,6.50
2022-11-12T08:07:46.376Z,6.47
2022-11-12T08:10:16.733Z,8.03
2022-11-12T08:12:45.345Z,6.83
2022-11-12T08:15:14.026Z,6.83
2022-11-12T08:17:42.565Z,6.73
2022-11-12T08:20:13.016Z,7.27
2022-11-12T08:22:45.046Z,6.40
2022-11-12T08:25:18.999Z,6.63
2022-11-12T08:27:47.526Z,7.33
2022-11-12T08:30:16.446Z,6.10
2022-11-12T08:32:45.022Z,5.77
2022-11-12T08:35:13.973Z,6.57
2022-11-12T08:37:42.519Z,5.27
2022-11-12T08:40:12.433Z,6.00
2022-11-12T08:42:42.484Z,5.07
2022-11-12T08:45:11.808Z,5.37
2022-11-12T08:47:40.379Z,6.10
2022-11-12T08:50:10.124Z,6.03
2022-11-12T08:52:38.689Z,5.07
2022-11-12T08:55:08.783Z,6.23
2022-11-12T08:57:42.961Z,5.80
2022-11-12T09:00:12.636Z,5.20
2022-11-12T09:02:41.258Z,5.87
2022-11-12T09:05:10.471Z,5.17
2022-11-12T09:07:54.275Z,4.80
2022-11-12T09:10:23.012Z,5.60
2022-11-12T09:12:54.033Z,5.30
2022-11-12T09:15:37.039Z,5.80
2022-11-12T09:18:07.972Z,6.00
2022-11-12T09:20:36.553Z,6.00
2022-11-12T09:23:06.610Z,5.70
2022-11-12T09:25:35.413Z,5.93
2022-11-12T09:28:09.740Z,5.97
2022-11-12T09:30:38.688Z,5.53
2022-11-12T09:33:07.254Z,5.90
2022-11-12T09:35:35.871Z,6.00
2022-11-12T09:38:04.535Z,7.00
2022-11-12T09:40:41.110Z,8.10
2022-11-12T09:43:19.355Z,7.70
2022-11-12T09:46:06.290Z,6.50
2022-11-12T09:48:41.636Z,6.20
2022-11-12T09:51:13.436Z,6.07
2022-11-12T09:53:44.682Z,7.60
2022-11-12T09:56:14.688Z,7.07
2022-11-12T09:58:44.673Z,7.27
2022-11-12T10:01:15.357Z,7.30
2022-11-12T10:03:48.124Z,8.63
2022-11-12T10:06:19.447Z,9.37
2022-11-12T10:08:49.694Z,8.93
2022-11-12T10:11:29.668Z,9.87
2022-11-12T10:14:02.322Z,9.90
2022-11-12T10:16:44.683Z,10.33
2022-11-12T10:19:23.809Z,9.10
2022-11-12T10:21:55.789Z,9.50
2022-11-12T10:24:24.670Z,10.30
2022-11-12T10:26:53.297Z,10.10
2022-11-12T10:29:29.311Z,10.83
2022-11-12T10:31:57.861Z,11.20
2022-11-12T10:34:26.505Z,11.90
2022-11-12T10:36:56.164Z,9.67
2022-11-12T10:39:37.840Z,9.77
2022-11-12T10:42:08.260Z,10.10
2022-11-12T10:44:38.939Z,11.10
2022-11-12T10:47:29.146Z,10.73
2022-11-12T10:50:20.030Z,9.40
2022-11-12T10:52:55.942Z,9.83
2022-11-12T10:55:25.382Z,7.77
2022-11-12T10:58:19.755Z,8.33
2022-11-12T11:00:58.229Z,6.20
2022-11-12T11:03:27.618Z,4.90
2022-11-12T11:05:57.970Z,6.40
2022-11-12T11:08:40.757Z,6.10
2022-11-12T11:11:24.058Z,6.23
2022-11-12T11:13:55.741Z,7.03
2022-11-12T11:16:27.000Z,7.20
2022-11-12T11:18:57.354Z,6.73
2022-11-12T11:22:05.571Z,5.10
2022-11-12T11:24:38.195Z,5.87
2022-11-12T11:27:10.406Z,6.20
2022-11-12T11:29:49.295Z,5.90
2022-11-12T11:32:37.583Z,5.57
2022-11-12T11:35:16.065Z,5.90
2022-11-12T11:37:48.231Z,5.53
2022-11-12T11:40:21.287Z,5.43
2022-11-12T11:42:57.053Z,5.43
2022-11-12T11:45:27.502Z,5.23
2022-11-12T11:48:02.616Z,5.43
2022-11-12T11:50:32.005Z,5.60
2022-11-12T11:53:23.041Z,6.50
2022-11-12T11:55:55.739Z,5.00
2022-11-12T11:58:43.462Z,5.87
2022-11-12T12:01:15.864Z,4.50
2022-11-12T12:03:53.077Z,5.43
2022-11-12T12:06:22.724Z,4.50
2022-11-12T12:09:04.672Z,5.10
2022-11-12T12:11:36.297Z,4.77
2022-11-12T12:14:17.623Z,5.17
2022-11-12T12:16:57.634Z,8.90
2022-11-12T12:19:38.057Z,7.27
2022-11-12T12:22:07.030Z,10.93
2022-11-12T12:24:38.545Z,8.40
2022-11-12T12:27:12.274Z,7.30
2022-11-12T12:29:42.200Z,7.47
2022-11-12T12:32:14.113Z,7.80
2022-11-12T12:34:45.528Z,7.27
2022-11-12T12:37:28.614Z,9.23
2022-11-12T12:40:00.058Z,9.87
2022-11-12T12:42:30.170Z,8.37
2022-11-12T12:45:02.174Z,7.67
2022-11-12T12:47:30.830Z,6.60
2022-11-12T12:50:00.924Z,7.20
2022-11-12T12:52:29.538Z,6.80
2022-11-12T12:54:58.537Z,6.50
2022-11-12T12:57:32.051Z,7.60
2022-11-12T13:00:25.971Z,6.97
2022-11-12T13:02:55.073Z,7.00
2022-11-12T13:05:29.446Z,6.20
2022-11-12T13:07:59.413Z,5.50
2022-11-12T13:10:52.364Z,5.63
2022-11-12T13:13:32.594Z,6.10
2022-11-12T13:16:02.073Z,5.13
2022-11-12T13:18:59.279Z,5.60
2022-11-12T13:21:29.374Z,4.83
2022-11-12T13:24:08.729Z,5.33
2022-11-12T13:26:48.831Z,6.47
2022-11-12T13:29:44.870Z,5.07
2022-11-12T13:32:36.124Z,5.23
2022-11-12T13:35:26.608Z,6.53
2022-11-12T13:37:56.927Z,7.10
2022-11-12T13:40:46.690Z,5.47
2022-11-12T13:43:23.166Z,4.60
2022-11-12T13:45:53.273Z,5.50
2022-11-12T13:48:26.162Z,4.23
2022-11-12T13:50:57.073Z,4.87
2022-11-12T13:53:28.020Z,5.00
2022-11-12T13:55:56.925Z,5.60
2022-11-12T13:58:30.054Z,4.93
2022-11-12T14:00:59.580Z,6.23
2022-11-12T14:03:29.647Z,5.13
2022-11-12T14:06:06.221Z,4.60
2022-11-12T14:09:13.271Z,5.33
2022-11-12T14:12:16.383Z,5.17
2022-11-12T14:14:54.036Z,5.20
2022-11-12T14:17:25.909Z,6.17
2022-11-12T14:20:18.647Z,7.10
2022-11-12T14:22:47.430Z,6.17
2022-11-12T14:25:19.302Z,4.60
2022-11-12T14:27:48.097Z,5.87
2022-11-12T14:30:20.797Z,4.43
2022-11-12T14:32:50.767Z,4.03
2022-11-12T14:35:40.852Z,3.70
2022-11-12T14:38:15.506Z,4.00
2022-11-12T14:40:49.027Z,3.33
2022-11-12T14:43:27.090Z,3.07
2022-11-12T14:45:57.985Z,3.27
2022-11-12T14:48:26.882Z,4.60
2022-11-12T14:50:59.551Z,6.40
2022-11-12T14:53:29.431Z,6.60
2022-11-12T14:55:58.195Z,7.87
2022-11-12T14:58:27.970Z,8.03
2022-11-12T15:00:58.056Z,8.93
2022-11-12T15:03:27.801Z,11.67
2022-11-12T15:05:58.664Z,12.73
2022-11-12T15:08:31.594Z,11.07
2022-11-12T15:11:21.296Z,11.73
2022-11-12T15:13:50.669Z,12.30
2022-11-12T15:16:23.083Z,12.97
2022-11-12T15:19:06.599Z,8.30
2022-11-12T15:21:35.733Z,49.30
2022-11-12T15:24:09.174Z,22.93
2022-11-12T15:26:38.946Z,13.53
2022-11-12T15:29:16.690Z,10.03
2022-11-12T15:31:47.773Z,8.33
2022-11-12T15:34:27.565Z,7.77
2022-11-12T15:36:56.227Z,7.47
2022-11-12T15:39:24.904Z,7.80
2022-11-12T15:41:59.234Z,6.43
2022-11-12T15:44:27.782Z,5.13
2022-11-12T15:46:58.865Z,6.10
2022-11-12T15:49:27.412Z,4.40
2022-11-12T15:51:56.015Z,5.87
2022-11-12T15:54:24.606Z,6.80
2022-11-12T15:56:53.222Z,30.73
2022-11-12T15:59:21.782Z,13.20
2022-11-12T16:01:50.381Z,16.10
2022-11-12T16:04:20.694Z,13.97
2022-11-12T16:06:49.290Z,12.70
2022-11-12T16:09:17.887Z,11.80
2022-11-12T16:11:46.495Z,12.30
2022-11-12T16:14:15.513Z,12.83
2022-11-12T16:16:44.084Z,13.20
2022-11-12T16:19:16.662Z,17.90
2022-11-12T16:21:46.631Z,17.20
2022-11-12T16:24:15.174Z,15.40
2022-11-12T16:26:43.767Z,14.77
2022-11-12T16:29:12.788Z,14.57
2022-11-12T16:31:43.573Z,13.80
2022-11-12T16:34:12.138Z,13.90
2022-11-12T16:36:40.790Z,14.40
2022-11-12T16:39:12.212Z,14.27
2022-11-12T16:41:40.796Z,13.50
2022-11-12T16:44:09.395Z,13.90
2022-11-12T16:46:40.238Z,12.83
2022-11-12T16:49:11.871Z,12.90
2022-11-12T16:51:40.449Z,11.80
2022-11-12T16:54:10.353Z,57.43
2022-11-12T16:56:39.325Z,34.73
2022-11-12T16:59:07.840Z,24.70
2022-11-12T17:01:36.451Z,23.60
2022-11-12T17:04:05.227Z,18.83
2022-11-12T17:06:34.684Z,20.33
2022-11-12T17:09:03.537Z,19.00
2022-11-12T17:11:33.477Z,18.97
2022-11-12T17:14:02.125Z,19.53
2022-11-12T17:16:30.743Z,18.80
2022-11-12T17:18:59.870Z,20.50
2022-11-12T17:21:28.457Z,21.73
2022-11-12T17:23:57.200Z,24.60
2022-11-12T17:26:26.242Z,24.73
2022-11-12T17:29:02.225Z,23.07
2022-11-12T17:31:33.648Z,23.70
2022-11-12T17:34:02.202Z,25.13
2022-11-12T17:36:30.892Z,27.00
2022-11-12T17:39:00.285Z,26.73
2022-11-12T17:41:29.426Z,25.53
2022-11-12T17:43:59.928Z,23.87
2022-11-12T17:46:29.094Z,22.70
2022-11-12T17:48:57.677Z,24.43
2022-11-12T17:51:27.317Z,22.57
2022-11-12T17:53:55.893Z,25.33
2022-11-12T17:56:24.984Z,23.87
2022-11-12T17:58:53.663Z,23.90
2022-11-12T18:01:24.773Z,26.27
2022-11-12T18:03:54.230Z,24.70
2022-11-12T18:06:24.014Z,23.57
2022-11-12T18:08:54.241Z,24.10
2022-11-12T18:11:22.785Z,23.23
2022-11-12T18:13:51.485Z,25.50
2022-11-12T18:16:22.655Z,29.03
2022-11-12T18:18:51.232Z,32.40
2022-11-12T18:21:19.797Z,31.43
2022-11-12T18:23:48.382Z,31.87
2022-11-12T18:26:18.345Z,39.10
2022-11-12T18:28:51.247Z,34.23
2022-11-12T18:31:19.816Z,34.57
2022-11-12T18:33:49.847Z,36.80
2022-11-12T18:36:19.311Z,36.90
2022-11-12T18:38:50.108Z,38.33
2022-11-12T18:41:19.513Z,43.73
2022-11-12T18:43:48.113Z,44.93
2022-11-12T18:46:16.670Z,44.40
2022-11-12T18:48:45.279Z,43.63
2022-11-12T18:51:16.099Z,44.67
2022-11-12T18:53:45.690Z,40.83
2022-11-12T18:56:16.436Z,39.60
2022-11-12T18:58:45.023Z,45.20
2022-11-12T19:01:15.882Z,45.47
2022-11-12T19:03:44.725Z,38.60
2022-11-12T19:06:14.905Z,38.47
2022-11-12T19:08:43.510Z,40.37
2022-11-12T19:11:13.217Z,38.80
2022-11-12T19:13:41.919Z,42.63
2022-11-12T19:16:11.910Z,42.33
2022-11-12T19:18:40.943Z,41.87
2022-11-12T19:21:10.370Z,40.57
2022-11-12T19:23:41.302Z,42.40
2022-11-12T19:26:12.241Z,44.70
2022-11-12T19:28:40.987Z,38.63
2022-11-12T19:31:11.314Z,48.07
2022-11-12T19:33:39.873Z,38.63
2022-11-12T19:36:09.360Z,38.90
2022-11-12T19:38:39.339Z,38.07
2022-11-12T19:41:07.942Z,37.87
2022-11-12T19:43:36.699Z,42.50
2022-11-12T19:46:05.350Z,38.87
2022-11-12T19:48:33.901Z,38.50
2022-11-12T19:51:02.893Z,37.80
2022-11-12T19:53:34.829Z,33.70
2022-11-12T19:56:05.308Z,35.03
2022-11-12T19:58:34.245Z,35.70
2022-11-12T20:01:06.263Z,30.40
2022-11-12T20:03:34.930Z,37.03
2022-11-12T20:06:03.690Z,37.23
2022-11-12T20:08:32.414Z,33.77
2022-11-12T20:11:01.054Z,33.70
2022-11-12T20:13:31.032Z,36.27
2022-11-12T20:15:59.577Z,33.60
2022-11-12T20:18:28.407Z,29.30
2022-11-12T20:20:57.748Z,29.60
2022-11-12T20:23:27.038Z,32.67
2022-11-12T20:25:55.842Z,32.00
2022-11-12T20:28:24.461Z,29.70
2022-11-12T20:31:00.113Z,27.93
2022-11-12T20:33:29.516Z,29.00
2022-11-12T20:36:05.238Z,25.17
2022-11-12T20:38:36.663Z,22.83
2022-11-12T20:41:06.335Z,29.10
2022-11-12T20:43:35.662Z,25.97
2022-11-12T20:46:06.001Z,24.33
2022-11-12T20:48:36.769Z,27.67
2022-11-12T20:51:25.210Z,27.83
2022-11-12T20:53:59.398Z,26.03
2022-11-12T20:56:29.187Z,31.07
2022-11-12T20:58:57.892Z,30.73
2022-11-12T21:01:28.539Z,26.40
2022-11-12T21:03:57.773Z,26.73
2022-11-12T21:06:27.156Z,26.37
2022-11-12T21:08:55.764Z,32.70
2022-11-12T21:11:24.457Z,32.27
2022-11-12T21:13:53.100Z,30.33
2022-11-12T21:16:21.658Z,30.13
2022-11-12T21:18:51.623Z,46.03
2022-11-12T21:21:21.574Z,32.17
2022-11-12T21:23:51.122Z,33.87
2022-11-12T21:26:20.691Z,33.60
2022-11-12T21:28:50.312Z,35.23
2022-11-12T21:31:19.561Z,35.93
2022-11-12T21:33:51.966Z,43.20
2022-11-12T21:36:21.198Z,41.70
2022-11-12T21:38:49.792Z,46.40
2022-11-12T21:41:19.281Z,43.10
2022-11-12T21:43:48.141Z,42.00
2022-11-12T21:46:17.761Z,43.67
2022-11-12T21:48:51.000Z,41.00
2022-11-12T21:51:24.356Z,41.43
2022-11-12T21:53:55.121Z,36.97
2022-11-12T21:56:23.868Z,38.67
2022-11-12T21:58:53.144Z,35.97
2022-11-12T22:01:22.417Z,40.33
2022-11-12T22:03:51.499Z,37.93
2022-11-12T22:06:20.350Z,33.93
2022-11-12T22:08:52.770Z,34.53
2022-11-12T22:11:21.488Z,29.73
2022-11-12T22:13:50.042Z,33.23
2022-11-12T22:16:19.973Z,29.07
2022-11-12T22:18:49.982Z,27.77
2022-11-12T22:21:19.528Z,29.07
2022-11-12T22:23:49.578Z,29.00
2022-11-12T22:26:20.735Z,27.80
2022-11-12T22:28:49.354Z,26.20
2022-11-12T22:31:18.701Z,31.30
2022-11-12T22:33:47.315Z,26.90
2022-11-12T22:36:16.990Z,26.70
2022-11-12T22:38:46.554Z,26.50
2022-11-12T22:41:17.394Z,27.53
2022-11-12T22:43:48.559Z,24.90
2022-11-12T22:46:19.146Z,26.60
2022-11-12T22:48:47.712Z,26.47
2022-11-12T22:51:17.462Z,22.90
2022-11-12T22:53:46.121Z,21.50
2022-11-12T22:56:17.254Z,21.40
2022-11-12T22:58:47.439Z,20.47
2022-11-12T23:01:20.389Z,20.40
2022-11-12T23:03:49.188Z,20.97
2022-11-12T23:06:17.774Z,20.87
2022-11-12T23:08:46.339Z,19.17
2022-11-12T23:11:17.647Z,20.77
2022-11-12T23:13:46.318Z,19.97
2022-11-12T23:16:15.981Z,19.93
2022-11-12T23:18:44.615Z,19.00
2022-11-12T23:21:13.974Z,18.63
2022-11-12T23:23:42.651Z,20.83
2022-11-12T23:26:13.109Z,18.80
2022-11-12T23:28:43.465Z,19.93
2022-11-12T23:31:13.234Z,19.90
2022-11-12T23:33:44.603Z,19.93
2022-11-12T23:36:13.186Z,20.53
2022-11-12T23:38:41.731Z,18.30
2022-11-12T23:41:10.989Z,17.37
2022-11-12T23:43:39.553Z,19.13
2022-11-12T23:46:09.566Z,20.73
2022-11-12T23:48:38.087Z,22.20
2022-11-12T23:51:07.838Z,20.53
2022-11-12T23:53:36.650Z,20.60
2022-11-12T23:56:05.681Z,21.10
2022-11-12T23:58:34.240Z,20.97
